This is the latest recevied weather packets stored in our database for station/object NR6G-5. If no packets are shown the sender has not sent any weather packets the latest 10 day(s).
| Time | Temp. | Humidity | Pressure | Rain* | Wind** | Luminosity | Snow |
|---|---|---|---|---|---|---|---|
| 1777789038 | 22.78° C | 33% | 1007.7 hPa | 0 mm | - | - | - |
| 1777788739 | 22.78° C | 33% | 1007.7 hPa | 0 mm | - | - | - |
| 1777788139 | 22.78° C | 35% | 1007.5 hPa | 0 mm | - | - | - |
| 1777787838 | 22.78° C | 38% | 1007.5 hPa | 0 mm | - | - | - |
| 1777787538 | 24.44° C | 37% | 1007.6 hPa | 0 mm | - | - | - |
| 1777787241 | 24.44° C | 35% | 1007.5 hPa | 0 mm | - | - | - |
| 1777786940 | 24.44° C | 35% | 1007.6 hPa | 0 mm | - | - | - |
| 1777786339 | 23.33° C | 39% | 1007.7 hPa | 0 mm | - | - | - |
| 1777786038 | 23.89° C | 38% | 1007.6 hPa | 0 mm | - | - | - |
| 1777785138 | 23.89° C | 35% | 1007.6 hPa | 0 mm | - | - | - |
| 1777784839 | 23.89° C | 34% | 1007.7 hPa | 0 mm | - | - | - |
| 1777784539 | 23.89° C | 35% | 1007.6 hPa | 0 mm | - | - | - |
| 1777784240 | 24.44° C | 31% | 1007.6 hPa | 0 mm | - | - | - |
| 1777783834 | 25° C | 27% | 1007.4 hPa | 0 mm | - | - | - |
| 1777783234 | 25° C | 25% | 1007.3 hPa | 0 mm | - | - | - |
| 1777782934 | 24.44° C | 25% | 1007.3 hPa | 0 mm | - | - | - |
| 1777782634 | 23.89° C | 28% | 1007 hPa | 0 mm | - | - | - |
| 1777781435 | 26.11° C | 26% | 1006.5 hPa | 0 mm | - | - | - |
| 1777781134 | 26.67° C | 24% | 1006.5 hPa | 0 mm | - | - | - |
| 1777780833 | 27.22° C | 22% | 1006.3 hPa | 0 mm | - | - | - |
| 1777780533 | 27.22° C | 21% | 1006.1 hPa | 0 mm | - | - | - |
| 1777780234 | 27.22° C | 20% | 1006 hPa | 0 mm | - | - | - |
| 1777779934 | 27.22° C | 20% | 1005.9 hPa | 0 mm | - | - | - |
| 1777779634 | 27.22° C | 21% | 1005.8 hPa | 0 mm | - | - | - |
| 1777779334 | 27.22° C | 21% | 1005.7 hPa | 0 mm | - | - | - |
* Rain latest hour (hover to see other rain measurements)
** Current wind speed in m/s (hover to see current wind gust speed)